Terminal Aerodrome Forecast
Issued by NWS Green Bay, WI

Home | Current Version | Previous Version | Graphics & Text | Print | Product List | Glossary On
Versions: 1 2 3 4 5 6 7 8 9 10 11 12 13 14 15 16 17 18 19 20 21 22 23
000
FTUS43 KGRB 081133
TAFGRB
TAF
KGRB 081133Z 0812/0912 27011G17KT P6SM -SN BKN025 OVC040
     FM081500 27011G17KT P6SM BKN035
     FM082200 24008KT P6SM BKN035 OVC100
     FM090000 23005KT 2SM -SN SCT020 OVC035
     FM090200 28005KT 1 1/2SM -SN BKN015 OVC025
     FM090800 35007KT P6SM -SHSN OVC017
     FM091000 35012G19KT P6SM BKN035=

USA.gov is the U.S. government's official web portal to all federal, state and local government web resources and services.